createdAt,value
2018-09-27T00:02:53.556Z,49.90
2018-09-27T00:07:57.945Z,49.90
2018-09-27T00:13:02.572Z,50.00
2018-09-27T00:18:06.307Z,49.90
2018-09-27T00:23:10.074Z,49.90
2018-09-27T00:28:13.704Z,50.00
2018-09-27T00:33:18.103Z,49.90
2018-09-27T00:38:22.393Z,49.90
2018-09-27T00:43:26.065Z,49.90
2018-09-27T00:48:30.007Z,50.00
2018-09-27T00:53:34.013Z,50.00
2018-09-27T00:58:38.354Z,49.90
2018-09-27T01:03:42.420Z,50.00
2018-09-27T01:08:47.336Z,50.10
2018-09-27T01:13:51.129Z,50.00
2018-09-27T01:18:55.496Z,50.60
2018-09-27T01:23:59.527Z,50.00
2018-09-27T01:29:03.413Z,50.00
2018-09-27T01:34:07.098Z,50.00
2018-09-27T01:39:10.839Z,50.70
2018-09-27T01:44:14.578Z,50.10
2018-09-27T01:49:18.460Z,50.10
2018-09-27T01:54:22.601Z,50.10
2018-09-27T01:59:26.482Z,50.20
2018-09-27T02:04:30.500Z,50.50
2018-09-27T02:09:34.214Z,50.10
2018-09-27T02:14:37.960Z,50.10
2018-09-27T02:19:42.460Z,50.10
2018-09-27T02:24:46.789Z,50.00
2018-09-27T02:29:50.610Z,50.10
2018-09-27T02:34:54.429Z,50.10
2018-09-27T02:39:59.037Z,50.10
2018-09-27T02:45:02.877Z,50.10
2018-09-27T02:50:06.950Z,50.10
2018-09-27T02:55:10.695Z,50.60
2018-09-27T03:00:14.972Z,49.90
2018-09-27T03:05:18.816Z,49.90
2018-09-27T03:10:22.513Z,49.90
2018-09-27T03:15:26.599Z,50.10
2018-09-27T03:20:30.753Z,50.10
2018-09-27T03:25:34.776Z,50.10
2018-09-27T03:30:38.763Z,50.80
2018-09-27T03:35:42.464Z,50.10
2018-09-27T03:40:46.415Z,50.20
2018-09-27T03:45:50.485Z,50.20
2018-09-27T03:50:54.658Z,50.20
2018-09-27T03:55:58.538Z,50.10
2018-09-27T04:01:03.398Z,50.10
2018-09-27T04:06:07.243Z,50.20
2018-09-27T04:11:11.199Z,50.20
2018-09-27T04:16:14.898Z,50.20
2018-09-27T04:21:18.975Z,50.20
2018-09-27T04:26:23.053Z,50.20
2018-09-27T04:31:27.103Z,50.30
2018-09-27T04:36:31.035Z,50.30
2018-09-27T04:41:35.199Z,50.60
2018-09-27T04:46:39.087Z,50.30
2018-09-27T04:51:43.477Z,50.30
2018-09-27T04:56:47.315Z,50.40
2018-09-27T05:01:51.652Z,50.50
2018-09-27T05:06:55.773Z,50.40
2018-09-27T05:11:59.525Z,51.10
2018-09-27T05:17:03.467Z,50.60
2018-09-27T05:22:07.281Z,50.60
2018-09-27T05:27:11.393Z,50.70
2018-09-27T05:32:15.754Z,50.80
2018-09-27T05:37:19.696Z,50.70
2018-09-27T05:42:23.569Z,50.70
2018-09-27T05:47:27.719Z,50.80
2018-09-27T05:52:31.321Z,50.80
2018-09-27T05:57:35.820Z,50.70
2018-09-27T06:02:39.778Z,50.70
2018-09-27T06:07:44.577Z,50.80
2018-09-27T06:12:48.869Z,50.80
2018-09-27T06:17:52.607Z,50.80
2018-09-27T06:22:56.637Z,50.80
2018-09-27T06:28:00.343Z,50.90
2018-09-27T06:33:04.004Z,50.90
2018-09-27T06:38:07.835Z,50.90
2018-09-27T06:43:12.076Z,51.00
2018-09-27T06:48:15.735Z,51.10
2018-09-27T06:53:19.531Z,51.10
2018-09-27T06:58:34.133Z,51.10
2018-09-27T07:03:37.863Z,51.20
2018-09-27T07:08:42.488Z,51.30
2018-09-27T07:13:46.633Z,51.20
2018-09-27T07:24:28.071Z,51.40
2018-09-27T07:29:35.954Z,51.50
2018-09-27T07:34:40.245Z,51.50
2018-09-27T07:39:43.975Z,51.50
2018-09-27T07:44:48.454Z,51.60
2018-09-27T07:49:52.292Z,51.60
2018-09-27T07:54:56.014Z,51.50
2018-09-27T07:59:59.622Z,51.40
2018-09-27T08:05:03.323Z,51.20
2018-09-27T08:10:07.189Z,51.00
2018-09-27T08:15:10.949Z,51.00
2018-09-27T08:20:14.977Z,51.00
2018-09-27T08:25:18.878Z,50.90
2018-09-27T08:30:22.911Z,50.80
2018-09-27T08:35:26.636Z,50.90
2018-09-27T08:40:30.653Z,50.80
2018-09-27T08:45:34.707Z,50.80
2018-09-27T08:50:38.344Z,50.80
2018-09-27T08:55:42.020Z,50.80
2018-09-27T09:00:45.828Z,50.70
2018-09-27T09:05:49.708Z,50.80
2018-09-27T09:10:57.221Z,50.70
2018-09-27T09:16:01.222Z,50.80
2018-09-27T09:21:05.939Z,50.80
2018-09-27T09:26:10.091Z,50.60
2018-09-27T09:31:14.770Z,50.70
2018-09-27T09:36:18.768Z,50.70
2018-09-27T09:41:22.676Z,50.50
2018-09-27T09:46:26.273Z,50.50
2018-09-27T09:51:30.704Z,50.30
2018-09-27T09:56:34.679Z,50.30
2018-09-27T10:01:38.760Z,50.10
2018-09-27T10:06:42.930Z,49.90
2018-09-27T10:11:47.117Z,49.90
2018-09-27T10:16:51.092Z,49.90
2018-09-27T10:21:54.931Z,49.70
2018-09-27T10:26:58.595Z,49.40
2018-09-27T10:32:02.972Z,49.20
2018-09-27T10:37:06.788Z,49.10
2018-09-27T10:42:10.637Z,49.00
2018-09-27T10:47:14.882Z,48.80
2018-09-27T10:52:18.531Z,48.60
2018-09-27T10:57:22.974Z,48.30
2018-09-27T11:02:26.812Z,48.10
2018-09-27T11:07:30.837Z,48.10
2018-09-27T11:12:35.125Z,48.20
2018-09-27T11:17:39.586Z,48.00
2018-09-27T11:22:43.532Z,47.80
2018-09-27T11:27:47.534Z,47.80
2018-09-27T11:32:51.599Z,47.50
2018-09-27T11:38:03.371Z,47.40
2018-09-27T11:43:07.872Z,47.20
2018-09-27T11:48:11.680Z,47.20
2018-09-27T11:53:15.694Z,47.20
2018-09-27T11:58:20.218Z,46.70
2018-09-27T12:03:23.969Z,46.40
2018-09-27T12:08:27.939Z,46.40
2018-09-27T12:13:32.009Z,46.60
2018-09-27T12:18:35.902Z,46.50
2018-09-27T12:23:39.870Z,46.20
2018-09-27T12:28:43.738Z,46.30
2018-09-27T12:33:47.379Z,46.10
2018-09-27T12:38:57.187Z,45.90
2018-09-27T12:44:01.105Z,45.70
2018-09-27T12:49:06.291Z,45.50
2018-09-27T12:54:10.329Z,45.50
2018-09-27T12:59:14.332Z,45.50
2018-09-27T13:04:18.492Z,45.20
2018-09-27T13:09:22.523Z,45.20
2018-09-27T13:14:26.740Z,44.80
2018-09-27T13:19:30.981Z,44.80
2018-09-27T13:24:34.920Z,44.60
2018-09-27T13:29:38.567Z,44.60
2018-09-27T13:34:42.607Z,44.60
2018-09-27T13:39:47.680Z,44.60
2018-09-27T13:44:51.624Z,44.40
2018-09-27T13:49:55.343Z,44.40
2018-09-27T13:54:59.100Z,44.20
2018-09-27T14:00:02.998Z,44.10
2018-09-27T14:05:06.940Z,44.00
2018-09-27T14:10:10.895Z,43.90
2018-09-27T14:15:15.370Z,43.80
2018-09-27T14:20:19.320Z,43.80
2018-09-27T14:25:23.338Z,43.80
2018-09-27T14:30:27.135Z,43.80
2018-09-27T14:35:31.033Z,43.60
2018-09-27T14:40:35.035Z,43.90
2018-09-27T14:45:38.859Z,43.60
2018-09-27T14:50:42.714Z,43.50
2018-09-27T14:55:46.314Z,43.30
2018-09-27T15:00:50.440Z,43.20
2018-09-27T15:05:54.835Z,43.10
2018-09-27T15:10:59.180Z,43.10
2018-09-27T15:16:03.104Z,43.20
2018-09-27T15:21:06.932Z,43.20
2018-09-27T15:26:10.843Z,43.20
2018-09-27T15:31:14.661Z,42.90
2018-09-27T15:36:18.516Z,43.10
2018-09-27T15:41:22.207Z,42.90
2018-09-27T15:46:25.911Z,42.80
2018-09-27T15:51:30.777Z,42.60
2018-09-27T15:56:35.271Z,42.50
2018-09-27T16:01:38.963Z,42.50
2018-09-27T16:06:42.954Z,42.40
2018-09-27T16:11:46.750Z,42.60
2018-09-27T16:16:50.680Z,42.50
2018-09-27T16:21:58.171Z,42.30
2018-09-27T16:27:02.287Z,42.50
2018-09-27T16:32:06.167Z,42.60
2018-09-27T16:37:10.255Z,43.00
2018-09-27T16:42:14.584Z,43.20
2018-09-27T16:47:18.396Z,43.60
2018-09-27T16:52:22.412Z,44.10
2018-09-27T16:57:26.018Z,44.40
2018-09-27T17:02:29.966Z,44.60
2018-09-27T17:07:34.080Z,44.80
2018-09-27T17:12:38.430Z,45.00
2018-09-27T17:17:42.760Z,44.90
2018-09-27T17:22:46.373Z,45.00
2018-09-27T17:27:50.075Z,45.10
2018-09-27T17:32:54.261Z,45.20
2018-09-27T17:37:57.971Z,45.10
2018-09-27T17:43:02.127Z,45.20
2018-09-27T17:48:06.038Z,45.20
2018-09-27T17:53:09.862Z,45.20
2018-09-27T17:58:14.374Z,45.20
2018-09-27T18:03:17.959Z,45.30
2018-09-27T18:08:21.651Z,45.30
2018-09-27T18:13:25.985Z,45.40
2018-09-27T18:18:30.192Z,45.40
2018-09-27T18:23:33.868Z,46.00
2018-09-27T18:28:37.934Z,45.30
2018-09-27T18:33:42.244Z,45.30
2018-09-27T18:38:51.824Z,45.30
2018-09-27T18:43:55.413Z,45.50
2018-09-27T18:49:07.091Z,45.50
2018-09-27T18:54:11.079Z,45.50
2018-09-27T18:59:14.923Z,45.50
2018-09-27T19:04:19.313Z,45.50
2018-09-27T19:09:23.535Z,45.50
2018-09-27T19:14:27.455Z,45.50
2018-09-27T19:19:32.026Z,45.60
2018-09-27T19:24:36.291Z,45.50
2018-09-27T19:29:40.113Z,45.50
2018-09-27T19:34:43.986Z,45.60
2018-09-27T19:39:47.855Z,45.50
2018-09-27T19:44:52.405Z,45.90
2018-09-27T19:49:58.306Z,45.60
2018-09-27T19:55:02.124Z,45.60
2018-09-27T20:00:06.061Z,46.40
2018-09-27T20:05:10.215Z,45.70
2018-09-27T20:10:14.580Z,45.80
2018-09-27T20:15:18.510Z,45.70
2018-09-27T20:20:22.181Z,45.60
2018-09-27T20:25:26.710Z,45.80
2018-09-27T20:30:32.876Z,45.70
2018-09-27T20:35:36.800Z,45.70
2018-09-27T20:40:40.412Z,45.80
2018-09-27T20:45:44.171Z,45.60
2018-09-27T20:50:47.971Z,45.80
2018-09-27T20:55:52.045Z,45.80
2018-09-27T21:00:56.103Z,45.90
2018-09-27T21:05:59.780Z,46.00
2018-09-27T21:11:03.871Z,46.00
2018-09-27T21:16:07.624Z,46.00
2018-09-27T21:21:11.304Z,46.00
2018-09-27T21:26:15.732Z,46.10
2018-09-27T21:31:20.072Z,46.30
2018-09-27T21:36:23.632Z,46.20
2018-09-27T21:41:27.725Z,46.80
2018-09-27T21:46:31.511Z,46.30
2018-09-27T21:51:35.335Z,46.20
2018-09-27T21:56:39.343Z,46.30
2018-09-27T22:01:50.203Z,46.30
2018-09-27T22:06:53.947Z,46.30
2018-09-27T22:11:57.867Z,46.30
2018-09-27T22:17:02.384Z,46.30
2018-09-27T22:22:06.818Z,47.10
2018-09-27T22:27:10.867Z,46.40
2018-09-27T22:32:14.607Z,46.50
2018-09-27T22:37:18.676Z,46.60
2018-09-27T22:42:22.680Z,46.70
2018-09-27T22:47:26.412Z,46.70
2018-09-27T22:52:30.107Z,46.60
2018-09-27T22:57:34.196Z,46.70
2018-09-27T23:02:38.324Z,46.70
2018-09-27T23:07:42.835Z,46.70
2018-09-27T23:12:46.526Z,46.80
2018-09-27T23:17:50.446Z,46.90
2018-09-27T23:22:54.102Z,46.80
2018-09-27T23:27:57.823Z,46.90
2018-09-27T23:33:02.259Z,47.00
2018-09-27T23:38:06.273Z,46.90
2018-09-27T23:43:10.515Z,47.00
2018-09-27T23:48:23.354Z,47.00
2018-09-27T23:53:27.122Z,47.00
2018-09-27T23:58:36.187Z,47.00
